createdAt,value
2023-02-15T00:00:32.158Z,2.71
2023-02-15T00:01:32.122Z,2.68
2023-02-15T00:02:32.118Z,2.65
2023-02-15T00:03:32.112Z,2.64
2023-02-15T00:04:32.108Z,2.64
2023-02-15T00:05:32.098Z,2.62
2023-02-15T00:06:32.093Z,2.62
2023-02-15T00:07:32.068Z,2.60
2023-02-15T00:08:32.088Z,2.60
2023-02-15T00:09:32.054Z,2.57
2023-02-15T00:10:32.032Z,2.54
2023-02-15T00:11:32.020Z,2.51
2023-02-15T00:12:32.011Z,2.50
2023-02-15T00:13:32.011Z,2.47
2023-02-15T00:14:32.012Z,2.49
2023-02-15T00:15:31.970Z,2.49
2023-02-15T00:16:31.984Z,2.49
2023-02-15T00:17:31.950Z,2.51
2023-02-15T00:18:31.957Z,2.53
2023-02-15T00:19:31.961Z,2.56
2023-02-15T00:20:31.930Z,2.56
2023-02-15T00:21:31.910Z,2.57
2023-02-15T00:22:31.913Z,2.57
2023-02-15T00:23:31.901Z,2.54
2023-02-15T00:24:31.910Z,2.53
2023-02-15T00:25:31.889Z,2.50
2023-02-15T00:26:31.871Z,2.49
2023-02-15T00:27:31.840Z,2.46
2023-02-15T00:28:31.864Z,2.44
2023-02-15T00:29:31.820Z,2.42
2023-02-15T00:30:31.867Z,2.43
2023-02-15T00:31:31.944Z,2.43
2023-02-15T00:32:31.806Z,2.42
2023-02-15T00:33:31.788Z,2.39
2023-02-15T00:34:31.820Z,2.42
2023-02-15T00:35:31.763Z,2.39
2023-02-15T00:36:31.751Z,2.39
2023-02-15T00:37:31.743Z,2.38
2023-02-15T00:38:31.733Z,2.39
2023-02-15T00:39:31.746Z,2.39
2023-02-15T00:40:31.709Z,2.36
2023-02-15T00:41:31.683Z,2.36
2023-02-15T00:42:31.676Z,2.36
2023-02-15T00:43:31.687Z,2.35
2023-02-15T00:44:31.653Z,2.35
2023-02-15T00:45:31.696Z,2.35
2023-02-15T00:46:31.651Z,2.36
2023-02-15T00:47:31.623Z,2.39
2023-02-15T00:48:31.623Z,2.39
2023-02-15T00:49:31.595Z,2.42
2023-02-15T00:50:31.612Z,2.43
2023-02-15T00:51:31.608Z,2.43
2023-02-15T00:52:31.576Z,2.43
2023-02-15T00:53:31.553Z,2.42
2023-02-15T00:54:31.554Z,2.42
2023-02-15T00:55:31.579Z,2.39
2023-02-15T00:56:31.558Z,2.38
2023-02-15T00:57:31.521Z,2.36
2023-02-15T00:58:31.516Z,2.36
2023-02-15T00:59:31.485Z,2.38
2023-02-15T01:00:31.498Z,2.38
2023-02-15T01:01:31.512Z,2.38
2023-02-15T01:02:31.468Z,2.38
2023-02-15T01:03:31.442Z,2.39
2023-02-15T01:04:31.498Z,2.38
2023-02-15T01:05:31.428Z,2.38
2023-02-15T01:06:31.440Z,2.36
2023-02-15T01:07:31.421Z,2.36
2023-02-15T01:08:31.408Z,2.35
2023-02-15T01:09:31.384Z,2.35
2023-02-15T01:10:31.390Z,2.35
2023-02-15T01:11:31.405Z,2.35
2023-02-15T01:12:31.359Z,2.33
2023-02-15T01:13:31.361Z,2.36
2023-02-15T01:14:31.367Z,2.35
2023-02-15T01:15:31.328Z,2.36
2023-02-15T01:16:31.303Z,2.38
2023-02-15T01:17:31.319Z,2.39
2023-02-15T01:18:31.360Z,2.42
2023-02-15T01:19:38.549Z,2.43
2023-02-15T01:20:31.286Z,2.46
2023-02-15T01:21:31.272Z,2.46
2023-02-15T01:22:31.243Z,2.47
2023-02-15T01:23:32.195Z,2.50
2023-02-15T01:24:31.245Z,2.51
2023-02-15T01:25:31.244Z,2.54
2023-02-15T01:26:31.215Z,2.57
2023-02-15T01:27:31.221Z,2.57
2023-02-15T01:28:31.195Z,2.61
2023-02-15T01:29:31.196Z,2.61
2023-02-15T01:30:31.165Z,2.64
2023-02-15T01:31:31.273Z,2.64
2023-02-15T01:32:31.144Z,2.62
2023-02-15T01:33:31.135Z,2.62
2023-02-15T01:34:31.141Z,2.60
2023-02-15T01:35:31.098Z,2.57
2023-02-15T01:36:31.117Z,2.56
2023-02-15T01:37:31.108Z,2.54
2023-02-15T01:38:32.023Z,2.51
2023-02-15T01:39:31.099Z,2.50
2023-02-15T01:40:31.049Z,2.46
2023-02-15T01:41:31.028Z,2.46
2023-02-15T01:42:31.062Z,2.42
2023-02-15T01:43:31.050Z,2.42
2023-02-15T01:44:31.019Z,2.42
2023-02-15T01:45:30.999Z,2.42
2023-02-15T01:46:31.034Z,2.38
2023-02-15T01:47:30.974Z,2.36
2023-02-15T01:48:30.978Z,2.36
2023-02-15T01:49:30.994Z,2.35
2023-02-15T01:50:30.937Z,2.35
2023-02-15T01:51:30.940Z,2.33
2023-02-15T01:52:30.932Z,2.32
2023-02-15T01:53:30.906Z,2.32
2023-02-15T01:54:30.936Z,2.31
2023-02-15T01:55:30.927Z,2.29
2023-02-15T01:56:30.871Z,2.28
2023-02-15T01:57:30.897Z,2.28
2023-02-15T01:58:30.853Z,2.26
2023-02-15T01:59:30.837Z,2.25
2023-02-15T02:00:30.853Z,2.25
2023-02-15T02:01:30.953Z,2.25
2023-02-15T02:02:30.855Z,2.25
2023-02-15T02:03:30.880Z,2.25
2023-02-15T02:04:30.806Z,2.24
2023-02-15T02:05:30.789Z,2.25
2023-02-15T02:06:30.835Z,2.24
2023-02-15T02:07:30.767Z,2.24
2023-02-15T02:08:30.751Z,2.24
2023-02-15T02:09:30.728Z,2.24
2023-02-15T02:10:30.730Z,2.24
2023-02-15T02:11:30.703Z,2.22
2023-02-15T02:12:30.743Z,2.22
2023-02-15T02:13:30.685Z,2.18
2023-02-15T02:14:30.678Z,2.17
2023-02-15T02:15:30.662Z,2.15
2023-02-15T02:16:30.655Z,2.14
2023-02-15T02:17:30.673Z,2.11
2023-02-15T02:18:30.688Z,2.08
2023-02-15T02:19:30.628Z,2.07
2023-02-15T02:20:30.617Z,2.06
2023-02-15T02:21:30.605Z,2.06
2023-02-15T02:22:30.584Z,2.04
2023-02-15T02:23:30.605Z,2.04
2023-02-15T02:24:30.592Z,2.00
2023-02-15T02:25:30.582Z,2.02
2023-02-15T02:26:30.580Z,1.99
2023-02-15T02:27:30.532Z,2.00
2023-02-15T02:28:30.562Z,2.00
2023-02-15T02:29:30.544Z,2.02
2023-02-15T02:30:30.679Z,2.02
2023-02-15T02:31:30.614Z,2.02
2023-02-15T02:32:30.560Z,2.02
2023-02-15T02:33:30.469Z,2.00
2023-02-15T02:34:30.478Z,1.95
2023-02-15T02:35:30.469Z,1.94
2023-02-15T02:36:30.446Z,1.91
2023-02-15T02:37:30.433Z,1.89
2023-02-15T02:38:30.497Z,1.88
2023-02-15T02:39:30.404Z,1.88
2023-02-15T02:40:30.429Z,1.85
2023-02-15T02:41:30.423Z,1.87
2023-02-15T02:42:30.426Z,1.87
2023-02-15T02:43:30.355Z,1.88
2023-02-15T02:44:30.380Z,1.87
2023-02-15T02:45:30.385Z,1.85
2023-02-15T02:46:30.536Z,1.84
2023-02-15T02:47:30.324Z,1.80
2023-02-15T02:48:30.338Z,1.78
2023-02-15T02:49:30.312Z,1.76
2023-02-15T02:50:30.327Z,1.74
2023-02-15T02:51:30.582Z,1.70
2023-02-15T02:52:30.266Z,1.71
2023-02-15T02:53:30.295Z,1.70
2023-02-15T02:54:30.244Z,1.71
2023-02-15T02:55:30.228Z,1.73
2023-02-15T02:56:30.236Z,1.74
2023-02-15T02:57:30.209Z,1.76
2023-02-15T02:58:30.215Z,1.77
2023-02-15T02:59:30.186Z,1.80
2023-02-15T03:00:30.185Z,1.81
2023-02-15T03:01:30.211Z,1.80
2023-02-15T03:02:30.222Z,1.78
2023-02-15T03:03:30.157Z,1.80
2023-02-15T03:04:30.212Z,1.77
2023-02-15T03:05:30.133Z,1.78
2023-02-15T03:06:30.142Z,1.77
2023-02-15T03:07:30.104Z,1.76
2023-02-15T03:08:30.087Z,1.76
2023-02-15T03:09:30.091Z,1.73
2023-02-15T03:10:30.069Z,1.71
2023-02-15T03:11:30.072Z,1.70
2023-02-15T03:12:30.041Z,1.70
2023-02-15T03:13:30.041Z,1.68
2023-02-15T03:14:30.060Z,1.68
2023-02-15T03:15:30.014Z,1.66
2023-02-15T03:16:30.069Z,1.62
2023-02-15T03:17:30.005Z,1.60
2023-02-15T03:18:29.988Z,1.59
2023-02-15T03:19:29.960Z,1.56
2023-02-15T03:20:29.976Z,1.55
2023-02-15T03:21:29.953Z,1.52
2023-02-15T03:22:30.003Z,1.52
2023-02-15T03:23:29.929Z,1.52
2023-02-15T03:24:29.951Z,1.50
2023-02-15T03:25:29.909Z,1.49
2023-02-15T03:26:29.916Z,1.49
2023-02-15T03:27:29.884Z,1.49
2023-02-15T03:28:29.897Z,1.49
2023-02-15T03:29:29.960Z,1.49
2023-02-15T03:30:29.931Z,1.48
2023-02-15T03:31:31.369Z,1.49
2023-02-15T03:32:29.856Z,1.49
2023-02-15T03:33:29.837Z,1.50
2023-02-15T03:34:29.857Z,1.48
2023-02-15T03:35:29.841Z,1.48
2023-02-15T03:36:29.793Z,1.44
2023-02-15T03:37:31.218Z,1.44
2023-02-15T03:38:29.760Z,1.44
2023-02-15T03:39:29.795Z,1.44
2023-02-15T03:40:29.744Z,1.42
2023-02-15T03:41:29.764Z,1.42
2023-02-15T03:42:29.740Z,1.44
2023-02-15T03:43:29.753Z,1.42
2023-02-15T03:44:29.702Z,1.41
2023-02-15T03:45:29.709Z,1.41
2023-02-15T03:46:29.730Z,1.41
2023-02-15T03:47:29.665Z,1.38
2023-02-15T03:48:29.683Z,1.38
2023-02-15T03:49:29.646Z,1.38
2023-02-15T03:50:29.630Z,1.37
2023-02-15T03:51:29.644Z,1.38
2023-02-15T03:52:29.630Z,1.40
2023-02-15T03:53:29.689Z,1.40
2023-02-15T03:54:29.590Z,1.41
2023-02-15T03:55:29.632Z,1.41
2023-02-15T03:56:29.688Z,1.40
2023-02-15T03:57:30.556Z,1.37
2023-02-15T03:58:29.548Z,1.35
2023-02-15T03:59:29.548Z,1.34
2023-02-15T04:00:29.539Z,1.35
2023-02-15T04:01:29.553Z,1.35
2023-02-15T04:02:29.519Z,1.37
2023-02-15T04:03:29.498Z,1.37
2023-02-15T04:04:29.515Z,1.38
2023-02-15T04:05:29.518Z,1.38
2023-02-15T04:06:29.470Z,1.38
2023-02-15T04:07:29.451Z,1.40
2023-02-15T04:08:29.436Z,1.38
2023-02-15T04:09:29.426Z,1.35
2023-02-15T04:10:29.563Z,1.37
2023-02-15T04:11:29.432Z,1.35
2023-02-15T04:12:29.385Z,1.34
2023-02-15T04:13:29.562Z,1.35
2023-02-15T04:14:29.393Z,1.34
2023-02-15T04:15:29.362Z,1.35
2023-02-15T04:16:31.135Z,1.34
2023-02-15T04:17:29.334Z,1.35
2023-02-15T04:18:29.322Z,1.35
2023-02-15T04:19:29.349Z,1.34
2023-02-15T04:20:29.323Z,1.35
2023-02-15T04:21:29.313Z,1.35
2023-02-15T04:22:29.280Z,1.34
2023-02-15T04:23:29.292Z,1.31
2023-02-15T04:24:29.267Z,1.31
2023-02-15T04:25:29.321Z,1.32
2023-02-15T04:26:29.249Z,1.31
2023-02-15T04:27:30.191Z,1.31
2023-02-15T04:28:29.219Z,1.28
2023-02-15T04:29:29.211Z,1.31
2023-02-15T04:30:29.370Z,1.31
2023-02-15T04:31:29.258Z,1.31
2023-02-15T04:32:29.170Z,1.32
2023-02-15T04:33:29.171Z,1.30
2023-02-15T04:34:29.165Z,1.32
2023-02-15T04:35:29.151Z,1.32
2023-02-15T04:36:29.122Z,1.31
2023-02-15T04:37:29.280Z,1.31
2023-02-15T04:38:29.168Z,1.31
2023-02-15T04:39:29.123Z,1.32
2023-02-15T04:40:29.090Z,1.35
2023-02-15T04:41:29.077Z,1.34
2023-02-15T04:42:29.090Z,1.35
2023-02-15T04:43:29.060Z,1.38
2023-02-15T04:44:29.104Z,1.35
2023-02-15T04:45:29.098Z,1.34
2023-02-15T04:46:29.027Z,1.35
2023-02-15T04:47:29.013Z,1.35
2023-02-15T04:48:29.060Z,1.35
2023-02-15T04:49:28.985Z,1.38
2023-02-15T04:50:28.970Z,1.38
2023-02-15T04:51:28.965Z,1.42
2023-02-15T04:52:28.950Z,1.44
2023-02-15T04:53:28.966Z,1.45
2023-02-15T04:54:28.954Z,1.48
2023-02-15T04:55:28.923Z,1.48
2023-02-15T04:56:28.911Z,1.50
2023-02-15T04:57:28.907Z,1.52
2023-02-15T04:58:28.927Z,1.50
2023-02-15T04:59:28.880Z,1.49
2023-02-15T05:00:28.859Z,1.48
2023-02-15T05:01:28.994Z,1.48
2023-02-15T05:02:28.874Z,1.48
2023-02-15T05:03:28.842Z,1.48
2023-02-15T05:04:28.872Z,1.48
2023-02-15T05:05:28.814Z,1.45
2023-02-15T05:06:28.814Z,1.49
2023-02-15T05:07:28.815Z,1.49
2023-02-15T05:08:28.799Z,1.45
2023-02-15T05:09:28.820Z,1.48
2023-02-15T05:10:28.775Z,1.45
2023-02-15T05:11:28.744Z,1.45
2023-02-15T05:12:28.734Z,1.41
2023-02-15T05:13:28.730Z,1.40
2023-02-15T05:14:28.763Z,1.37
2023-02-15T05:15:28.702Z,1.35
2023-02-15T05:16:28.767Z,1.32
2023-02-15T05:17:28.700Z,1.31
2023-02-15T05:18:28.736Z,1.31
2023-02-15T05:19:28.697Z,1.28
2023-02-15T05:20:28.656Z,1.28
2023-02-15T05:21:28.636Z,1.28
2023-02-15T05:22:28.629Z,1.30
2023-02-15T05:23:28.609Z,1.30
2023-02-15T05:24:28.604Z,1.31
2023-02-15T05:25:28.617Z,1.34
2023-02-15T05:26:28.591Z,1.37
2023-02-15T05:27:28.585Z,1.38
2023-02-15T05:28:28.562Z,1.41
2023-02-15T05:29:28.593Z,1.41
2023-02-15T05:30:28.743Z,1.42
2023-02-15T05:31:28.922Z,1.42
2023-02-15T05:32:28.645Z,1.44
2023-02-15T05:33:28.514Z,1.44
2023-02-15T05:34:28.493Z,1.42
2023-02-15T05:35:28.504Z,1.41
2023-02-15T05:36:28.522Z,1.41
2023-02-15T05:37:28.474Z,1.41
2023-02-15T05:38:28.449Z,1.41
2023-02-15T05:39:28.446Z,1.41
2023-02-15T05:40:28.424Z,1.41
2023-02-15T05:41:28.434Z,1.41
2023-02-15T05:42:28.465Z,1.42
2023-02-15T05:43:28.409Z,1.42
2023-02-15T05:44:28.395Z,1.42
2023-02-15T05:45:28.407Z,1.40
2023-02-15T05:46:28.486Z,1.41
2023-02-15T05:47:28.376Z,1.37
2023-02-15T05:48:29.335Z,1.32
2023-02-15T05:49:28.356Z,1.31
2023-02-15T05:50:28.329Z,1.28
2023-02-15T05:51:28.356Z,1.26
2023-02-15T05:52:28.321Z,1.28
2023-02-15T05:53:28.334Z,1.26
2023-02-15T05:54:28.312Z,1.28
2023-02-15T05:55:28.313Z,1.30
2023-02-15T05:56:28.270Z,1.28
2023-02-15T05:57:28.328Z,1.30
2023-02-15T05:58:28.245Z,1.30
2023-02-15T05:59:28.273Z,1.31
2023-02-15T06:00:28.229Z,1.30
2023-02-15T06:01:28.236Z,1.32
2023-02-15T06:02:28.254Z,1.31
2023-02-15T06:03:28.244Z,1.34
2023-02-15T06:04:28.188Z,1.34
2023-02-15T06:05:28.169Z,1.37
2023-02-15T06:06:28.154Z,1.40
2023-02-15T06:07:28.150Z,1.40
2023-02-15T06:08:28.283Z,1.42
2023-02-15T06:09:28.141Z,1.45
2023-02-15T06:10:28.102Z,1.45
2023-02-15T06:11:28.095Z,1.45
2023-02-15T06:12:28.087Z,1.49
2023-02-15T06:13:28.091Z,1.48
2023-02-15T06:14:28.086Z,1.49
2023-02-15T06:15:28.100Z,1.50
2023-02-15T06:16:28.044Z,1.50
2023-02-15T06:17:28.096Z,1.52
2023-02-15T06:18:28.020Z,1.53
2023-02-15T06:19:28.023Z,1.52
2023-02-15T06:20:28.021Z,1.52
2023-02-15T06:21:27.986Z,1.52
2023-02-15T06:22:28.037Z,1.53
2023-02-15T06:23:27.975Z,1.52
2023-02-15T06:24:28.925Z,1.52
2023-02-15T06:25:27.963Z,1.55
2023-02-15T06:26:27.942Z,1.55
2023-02-15T06:27:27.957Z,1.56
2023-02-15T06:28:27.922Z,1.53
2023-02-15T06:29:27.962Z,1.55
2023-02-15T06:30:27.933Z,1.58
2023-02-15T06:31:27.959Z,1.58
2023-02-15T06:32:27.913Z,1.58
2023-02-15T06:33:27.877Z,1.58
2023-02-15T06:34:27.843Z,1.59
2023-02-15T06:35:27.846Z,1.60
2023-02-15T06:36:27.830Z,1.59
2023-02-15T06:37:27.839Z,1.59
2023-02-15T06:38:27.821Z,1.60
2023-02-15T06:39:27.803Z,1.62
2023-02-15T06:40:27.784Z,1.60
2023-02-15T06:41:27.779Z,1.62
2023-02-15T06:42:27.780Z,1.62
2023-02-15T06:43:27.807Z,1.62
2023-02-15T06:44:27.745Z,1.66
2023-02-15T06:45:27.742Z,1.66
2023-02-15T06:46:27.770Z,1.67
2023-02-15T06:47:27.708Z,1.68
2023-02-15T06:48:27.700Z,1.67
2023-02-15T06:49:27.708Z,1.68
2023-02-15T06:50:27.705Z,1.70
2023-02-15T06:51:27.699Z,1.70
2023-02-15T06:52:27.667Z,1.71
2023-02-15T06:53:27.647Z,1.73
2023-02-15T06:54:27.649Z,1.74
2023-02-15T06:55:27.638Z,1.77
2023-02-15T06:56:27.614Z,1.78
2023-02-15T06:57:27.610Z,1.81
2023-02-15T06:58:27.591Z,1.84
2023-02-15T06:59:27.600Z,1.87
2023-02-15T07:00:27.580Z,1.89
2023-02-15T07:01:27.648Z,1.91
2023-02-15T07:02:27.554Z,1.91
2023-02-15T07:03:27.538Z,1.92
2023-02-15T07:04:27.572Z,1.94
2023-02-15T07:05:27.520Z,1.97
2023-02-15T07:06:27.508Z,1.97
2023-02-15T07:07:27.559Z,2.00
2023-02-15T07:08:27.476Z,2.02
2023-02-15T07:09:27.480Z,2.04
2023-02-15T07:10:27.462Z,2.06
2023-02-15T07:11:27.452Z,2.08
2023-02-15T07:12:28.405Z,2.10
2023-02-15T07:13:27.446Z,2.11
2023-02-15T07:14:28.971Z,2.13
2023-02-15T07:15:27.405Z,2.14
2023-02-15T07:16:27.418Z,2.15
2023-02-15T07:17:35.357Z,2.17
2023-02-15T07:18:28.401Z,2.18
2023-02-15T07:19:27.362Z,2.20
2023-02-15T07:20:27.364Z,2.20
2023-02-15T07:21:27.489Z,2.22
2023-02-15T07:22:27.334Z,2.24
2023-02-15T07:23:27.305Z,2.25
2023-02-15T07:24:27.311Z,2.26
2023-02-15T07:25:27.305Z,2.29
2023-02-15T07:26:27.286Z,2.29
2023-02-15T07:27:27.307Z,2.32
2023-02-15T07:28:27.263Z,2.36
2023-02-15T07:29:27.260Z,2.39
2023-02-15T07:30:27.345Z,2.42
2023-02-15T07:31:27.240Z,2.44
2023-02-15T07:32:27.308Z,2.44
2023-02-15T07:33:27.201Z,2.49
2023-02-15T07:34:27.187Z,2.51
2023-02-15T07:35:27.194Z,2.53
2023-02-15T07:36:27.169Z,2.54
2023-02-15T07:37:27.190Z,2.56
2023-02-15T07:38:27.165Z,2.60
2023-02-15T07:39:27.146Z,2.62
2023-02-15T07:40:27.126Z,2.64
2023-02-15T07:41:27.173Z,2.67
2023-02-15T07:42:27.139Z,2.71
2023-02-15T07:43:27.109Z,2.72
2023-02-15T07:44:27.070Z,2.72
2023-02-15T07:45:27.094Z,2.72
2023-02-15T07:46:27.137Z,2.77
2023-02-15T07:47:27.089Z,2.77
2023-02-15T07:48:27.064Z,2.79
2023-02-15T07:49:27.029Z,2.80
2023-02-15T07:50:27.032Z,2.85
2023-02-15T07:51:27.008Z,2.85
2023-02-15T07:52:27.032Z,2.87
2023-02-15T07:53:26.998Z,2.89
2023-02-15T07:54:27.027Z,2.92
2023-02-15T07:55:27.017Z,3.00
2023-02-15T07:56:26.950Z,3.05
2023-02-15T07:57:26.940Z,3.07
2023-02-15T07:58:26.955Z,3.08
2023-02-15T07:59:26.922Z,3.11
2023-02-15T08:00:26.924Z,3.13
2023-02-15T08:01:26.927Z,3.14
2023-02-15T08:02:26.947Z,3.18
2023-02-15T08:03:26.920Z,3.19
2023-02-15T08:04:26.892Z,3.22
2023-02-15T08:05:26.852Z,3.25
2023-02-15T08:06:26.851Z,3.28
2023-02-15T08:07:26.853Z,3.32
2023-02-15T08:08:26.820Z,3.36
2023-02-15T08:09:26.884Z,3.36
2023-02-15T08:10:26.806Z,3.44
2023-02-15T08:11:26.807Z,3.51
2023-02-15T08:12:26.809Z,3.56
2023-02-15T08:13:26.787Z,3.58
2023-02-15T08:14:26.783Z,3.60
2023-02-15T08:15:26.776Z,3.65
2023-02-15T08:16:26.799Z,3.65
2023-02-15T08:17:26.761Z,3.68
2023-02-15T08:18:26.726Z,3.70
2023-02-15T08:19:26.732Z,3.73
2023-02-15T08:20:26.704Z,3.77
2023-02-15T08:21:26.691Z,3.78
2023-02-15T08:22:26.720Z,3.83
2023-02-15T08:23:26.673Z,3.87
2023-02-15T08:24:26.670Z,3.92
2023-02-15T08:25:26.645Z,3.96
2023-02-15T08:26:26.655Z,3.99
2023-02-15T08:27:26.625Z,4.04
2023-02-15T08:28:26.644Z,4.06
2023-02-15T08:29:26.589Z,4.10
2023-02-15T08:30:26.649Z,4.14
2023-02-15T08:31:26.640Z,4.16
2023-02-15T08:32:26.670Z,4.20
2023-02-15T08:33:26.632Z,4.22
2023-02-15T08:34:26.570Z,4.24
2023-02-15T08:35:26.539Z,4.28
2023-02-15T08:36:26.536Z,4.31
2023-02-15T08:37:26.517Z,4.34
2023-02-15T08:38:26.504Z,4.37
2023-02-15T08:39:26.505Z,4.40
2023-02-15T08:40:26.496Z,4.42
2023-02-15T08:41:26.478Z,4.45
2023-02-15T08:42:26.505Z,4.49
2023-02-15T08:43:26.447Z,4.52
2023-02-15T08:44:26.447Z,4.53
2023-02-15T08:45:26.515Z,4.58
2023-02-15T08:46:26.415Z,4.62
2023-02-15T08:47:26.396Z,4.63
2023-02-15T08:48:26.441Z,4.68
2023-02-15T08:49:26.384Z,4.71
2023-02-15T08:50:26.388Z,4.74
2023-02-15T08:51:26.368Z,4.75
2023-02-15T08:52:26.363Z,4.82
2023-02-15T08:53:26.330Z,4.84
2023-02-15T08:54:26.351Z,4.89
2023-02-15T08:55:26.380Z,4.92
2023-02-15T08:56:26.298Z,4.96
2023-02-15T08:57:26.327Z,5.00
2023-02-15T08:58:26.291Z,5.04
2023-02-15T08:59:26.265Z,5.05
2023-02-15T09:00:26.261Z,5.08
2023-02-15T09:01:26.274Z,5.12
2023-02-15T09:02:26.316Z,5.18
2023-02-15T09:03:26.262Z,5.21
2023-02-15T09:04:26.223Z,5.26
2023-02-15T09:05:26.200Z,5.29
2023-02-15T09:06:26.200Z,5.35
2023-02-15T09:07:26.199Z,5.38
2023-02-15T09:08:26.189Z,5.41
2023-02-15T09:09:26.188Z,5.46
2023-02-15T09:10:26.246Z,5.51
2023-02-15T09:11:26.138Z,5.54
2023-02-15T09:12:26.181Z,5.57
2023-02-15T09:13:26.123Z,5.61
2023-02-15T09:14:26.126Z,5.66
2023-02-15T09:15:26.080Z,5.71
2023-02-15T09:16:26.144Z,5.75
2023-02-15T09:17:26.132Z,5.79
2023-02-15T09:18:26.082Z,5.82
2023-02-15T09:19:26.101Z,5.84
2023-02-15T09:20:26.068Z,5.86
2023-02-15T09:21:26.023Z,5.90
2023-02-15T09:22:26.013Z,5.93
2023-02-15T09:23:27.205Z,5.97
2023-02-15T09:24:25.994Z,5.99
2023-02-15T09:25:26.009Z,6.02
2023-02-15T09:26:25.992Z,6.05
2023-02-15T09:27:26.916Z,6.08
2023-02-15T09:28:25.969Z,6.12
2023-02-15T09:29:25.991Z,6.16
2023-02-15T09:30:26.078Z,6.19
2023-02-15T09:31:26.044Z,6.24
2023-02-15T09:32:25.912Z,6.28
2023-02-15T09:33:25.894Z,6.33
2023-02-15T09:34:25.885Z,6.35
2023-02-15T09:35:25.893Z,6.39
2023-02-15T09:36:25.881Z,6.44
2023-02-15T09:37:25.852Z,6.46
2023-02-15T09:38:25.848Z,6.51
2023-02-15T09:39:25.845Z,6.51
2023-02-15T09:40:25.850Z,6.56
2023-02-15T09:41:25.805Z,6.57
2023-02-15T09:42:25.802Z,6.57
2023-02-15T09:43:25.790Z,6.59
2023-02-15T09:44:25.793Z,6.62
2023-02-15T09:45:25.756Z,6.63
2023-02-15T09:46:25.758Z,6.66
2023-02-15T09:47:25.781Z,6.70
2023-02-15T09:48:25.732Z,6.72
2023-02-15T09:49:25.743Z,6.74
2023-02-15T09:50:25.732Z,6.75
2023-02-15T09:51:25.743Z,6.78
2023-02-15T09:52:25.679Z,6.79
2023-02-15T09:53:25.699Z,6.79
2023-02-15T09:54:25.669Z,6.82
2023-02-15T09:55:25.677Z,6.85
2023-02-15T09:56:25.647Z,6.88
2023-02-15T09:57:25.644Z,6.92
2023-02-15T09:58:25.611Z,6.93
2023-02-15T09:59:25.610Z,6.96
2023-02-15T10:00:25.588Z,6.96
2023-02-15T10:01:25.736Z,7.00
2023-02-15T10:02:25.593Z,7.03
2023-02-15T10:03:25.561Z,7.07
2023-02-15T10:04:25.577Z,7.14
2023-02-15T10:05:25.542Z,7.15
2023-02-15T10:06:25.573Z,7.20
2023-02-15T10:07:25.513Z,7.23
2023-02-15T10:08:25.501Z,7.29
2023-02-15T10:09:25.507Z,7.31
2023-02-15T10:10:25.503Z,7.35
2023-02-15T10:11:25.507Z,7.38
2023-02-15T10:12:25.537Z,7.40
2023-02-15T10:13:25.443Z,7.45
2023-02-15T10:14:25.461Z,7.48
2023-02-15T10:15:25.437Z,7.53
2023-02-15T10:16:25.519Z,7.56
2023-02-15T10:17:25.404Z,7.60
2023-02-15T10:18:25.437Z,7.63
2023-02-15T10:19:26.628Z,7.66
2023-02-15T10:20:25.380Z,7.67
2023-02-15T10:21:25.389Z,7.70
2023-02-15T10:22:25.373Z,7.70
2023-02-15T10:23:46.352Z,7.75
2023-02-15T10:24:25.388Z,7.77
2023-02-15T10:25:25.334Z,7.79
2023-02-15T10:26:25.337Z,7.82
2023-02-15T10:27:25.290Z,7.85
2023-02-15T10:28:25.319Z,7.88
2023-02-15T10:29:25.294Z,7.91
2023-02-15T10:30:25.332Z,7.93
2023-02-15T10:31:25.379Z,7.95
2023-02-15T10:32:25.334Z,7.98
2023-02-15T10:33:25.253Z,8.01
2023-02-15T10:34:25.227Z,8.05
2023-02-15T10:35:25.228Z,8.06
2023-02-15T10:36:25.255Z,8.09
2023-02-15T10:37:25.186Z,8.09
2023-02-15T10:38:25.194Z,8.12
2023-02-15T10:39:25.170Z,8.15
2023-02-15T10:40:25.151Z,8.16
2023-02-15T10:41:25.150Z,8.19
2023-02-15T10:42:25.179Z,8.24
2023-02-15T10:43:25.124Z,8.26
2023-02-15T10:44:25.124Z,8.28
2023-02-15T10:45:25.099Z,8.30
2023-02-15T10:46:25.177Z,8.33
2023-02-15T10:47:25.086Z,8.36
2023-02-15T10:48:25.105Z,8.38
2023-02-15T10:49:25.063Z,8.44
2023-02-15T10:50:25.057Z,8.46
2023-02-15T10:51:25.021Z,8.49
2023-02-15T10:52:25.033Z,8.53
2023-02-15T10:53:25.063Z,8.55
2023-02-15T10:54:25.034Z,8.58
2023-02-15T10:55:24.991Z,8.61
2023-02-15T10:56:24.990Z,8.61
2023-02-15T10:57:24.984Z,8.64
2023-02-15T10:58:25.007Z,8.66
2023-02-15T10:59:24.949Z,8.69
2023-02-15T11:00:24.936Z,8.71
2023-02-15T11:01:24.996Z,8.73
2023-02-15T11:02:24.925Z,8.76
2023-02-15T11:03:24.907Z,8.79
2023-02-15T11:04:24.905Z,8.82
2023-02-15T11:05:24.913Z,8.85
2023-02-15T11:06:24.873Z,8.88
2023-02-15T11:07:24.868Z,8.91
2023-02-15T11:08:24.857Z,8.94
2023-02-15T11:09:24.849Z,8.99
2023-02-15T11:10:24.857Z,9.00
2023-02-15T11:11:24.828Z,9.04
2023-02-15T11:12:24.813Z,9.08
2023-02-15T11:13:24.835Z,9.11
2023-02-15T11:14:24.809Z,9.18
2023-02-15T11:15:24.765Z,9.21
2023-02-15T11:16:24.762Z,9.25
2023-02-15T11:17:24.746Z,9.28
2023-02-15T11:18:24.742Z,9.32
2023-02-15T11:19:24.750Z,9.36
2023-02-15T11:20:24.723Z,9.40
2023-02-15T11:21:24.734Z,9.44
2023-02-15T11:22:24.695Z,9.47
2023-02-15T11:23:24.670Z,9.50
2023-02-15T11:24:24.688Z,9.51
2023-02-15T11:25:24.663Z,9.51
2023-02-15T11:26:24.685Z,9.51
2023-02-15T11:27:24.674Z,9.55
2023-02-15T11:28:24.630Z,9.54
2023-02-15T11:29:24.645Z,9.56
2023-02-15T11:30:24.623Z,9.58
2023-02-15T11:31:24.677Z,9.62
2023-02-15T11:32:24.637Z,9.64
2023-02-15T11:33:24.570Z,9.66
2023-02-15T11:34:24.572Z,9.68
2023-02-15T11:35:24.578Z,9.72
2023-02-15T11:36:24.540Z,9.74
2023-02-15T11:37:24.528Z,9.77
2023-02-15T11:38:24.539Z,9.79
2023-02-15T11:39:24.546Z,9.83
2023-02-15T11:40:24.524Z,9.84
2023-02-15T11:41:24.502Z,9.87
2023-02-15T11:42:24.473Z,9.87
2023-02-15T11:43:24.475Z,9.89
2023-02-15T11:44:24.451Z,9.91
2023-02-15T11:45:24.455Z,9.94
2023-02-15T11:46:24.511Z,9.97
2023-02-15T11:47:24.414Z,10.01
2023-02-15T11:48:24.420Z,10.04
2023-02-15T11:49:24.390Z,10.07
2023-02-15T11:50:24.390Z,10.10
2023-02-15T11:51:24.544Z,10.15
2023-02-15T11:52:24.365Z,10.19
2023-02-15T11:53:24.342Z,10.23
2023-02-15T11:54:24.361Z,10.26
2023-02-15T11:55:24.341Z,10.30
2023-02-15T11:56:24.332Z,10.34
2023-02-15T11:57:24.307Z,10.37
2023-02-15T11:58:24.330Z,10.40
2023-02-15T11:59:24.282Z,10.42
2023-02-15T12:00:24.279Z,10.46
2023-02-15T12:01:24.271Z,10.49
2023-02-15T12:02:24.311Z,10.56
2023-02-15T12:03:24.237Z,10.61
2023-02-15T12:04:24.277Z,10.64
2023-02-15T12:05:24.208Z,10.69
2023-02-15T12:06:24.184Z,10.72
2023-02-15T12:07:24.184Z,10.75
2023-02-15T12:08:24.241Z,10.78
2023-02-15T12:09:24.163Z,10.79
2023-02-15T12:10:24.174Z,10.82
2023-02-15T12:11:24.146Z,10.86
2023-02-15T12:12:24.148Z,10.90
2023-02-15T12:13:24.122Z,10.92
2023-02-15T12:14:24.114Z,10.93
2023-02-15T12:15:24.136Z,10.96
2023-02-15T12:16:24.136Z,10.99
2023-02-15T12:17:24.099Z,11.04
2023-02-15T12:18:24.068Z,11.11
2023-02-15T12:19:24.048Z,11.18
2023-02-15T12:20:24.039Z,11.25
2023-02-15T12:21:24.077Z,11.32
2023-02-15T12:22:24.017Z,11.40
2023-02-15T12:23:24.007Z,11.44
2023-02-15T12:24:23.989Z,11.47
2023-02-15T12:25:23.990Z,11.54
2023-02-15T12:26:23.978Z,11.60
2023-02-15T12:27:24.012Z,11.68
2023-02-15T12:28:23.952Z,11.78
2023-02-15T12:29:24.144Z,11.88
2023-02-15T12:30:23.975Z,12.00
2023-02-15T12:31:23.987Z,12.10
2023-02-15T12:32:23.979Z,12.20
2023-02-15T12:33:23.897Z,12.27
2023-02-15T12:34:23.898Z,12.35
2023-02-15T12:35:23.895Z,12.42
2023-02-15T12:36:23.893Z,12.50
2023-02-15T12:37:23.858Z,12.60
2023-02-15T12:38:23.830Z,12.68
2023-02-15T12:39:23.862Z,12.82
2023-02-15T12:40:23.846Z,12.97
2023-02-15T12:41:23.821Z,13.12
2023-02-15T12:42:23.804Z,13.31
2023-02-15T12:43:23.792Z,13.50
2023-02-15T12:44:23.795Z,13.72
2023-02-15T12:45:23.775Z,13.93
2023-02-15T12:46:23.789Z,14.15
2023-02-15T12:47:28.853Z,14.40
2023-02-15T12:48:24.747Z,14.59
2023-02-15T12:49:24.669Z,14.73
2023-02-15T12:50:23.726Z,14.89
2023-02-15T12:51:23.695Z,15.02
2023-02-15T12:52:23.697Z,15.15
2023-02-15T12:53:23.680Z,15.22
2023-02-15T12:54:23.881Z,15.22
2023-02-15T12:55:23.692Z,15.10
2023-02-15T12:56:23.995Z,15.06
2023-02-15T12:57:23.650Z,15.03
2023-02-15T12:58:23.622Z,15.00
2023-02-15T12:59:23.641Z,14.97
2023-02-15T13:00:23.604Z,14.89
2023-02-15T13:01:23.677Z,14.84
2023-02-15T13:02:23.600Z,14.68
2023-02-15T13:03:23.578Z,14.58
2023-02-15T13:04:23.553Z,14.45
2023-02-15T13:05:23.542Z,14.44
2023-02-15T13:06:23.553Z,14.54
2023-02-15T13:07:23.566Z,14.66
2023-02-15T13:08:23.505Z,14.79
2023-02-15T13:09:23.510Z,14.86
2023-02-15T13:10:23.499Z,14.91
2023-02-15T13:11:23.476Z,15.06
2023-02-15T13:12:23.469Z,15.22
2023-02-15T13:13:23.488Z,15.43
2023-02-15T13:14:23.448Z,15.62
2023-02-15T13:15:23.451Z,15.73